Time;durP1;ratioP1;P1;durP2;ratioP2;P2;SDS_P1;SDS_P2;PMS_P1;PMS_P2;Temp;Humidity;BMP_temperature;BMP_pressure;BME280_temperature;BME280_humidity;BME280_pressure;Samples;Min_cycle;Max_cycle;Signal;HPM_P1;HPM_P2
2022/03/13 00:00:11;;;;;;;;;;;2.60;67.20;;;;;;5147348;28;19921;-27
2022/03/13 00:02:46;;;;;;;;;;;2.60;66.60;;;;;;5146497;28;20861;-27
2022/03/13 00:05:19;;;;;;;;;;;2.60;66.30;;;;;;5139660;28;19938;-27
2022/03/13 00:07:55;;;;;;;;;;;2.50;65.80;;;;;;5128520;28;19940;-27
2022/03/13 00:10:28;;;;;;;;;;;2.50;66.60;;;;;;5144447;28;19921;-27
2022/03/13 00:13:03;;;;;;;;;;;2.60;67.50;;;;;;5144150;28;20507;-27
2022/03/13 00:15:37;;;;;;;;;;;2.50;67.90;;;;;;5144892;28;19952;-29
2022/03/13 00:18:11;;;;;;;;;;;2.50;66.80;;;;;;5146482;28;19936;-27
2022/03/13 00:20:44;;;;;;;;;;;2.30;67.10;;;;;;5147468;28;19991;-26
2022/03/13 00:23:17;;;;;;;;;;;2.40;67.20;;;;;;5149163;28;20680;-27
2022/03/13 00:25:49;;;;;;;;;;;2.40;67.50;;;;;;5143638;28;19936;-27
2022/03/13 00:28:21;;;;;;;;;;;2.50;67.00;;;;;;5149112;28;19925;-26
2022/03/13 00:30:54;;;;;;;;;;;2.40;66.30;;;;;;5133796;28;19933;-27
2022/03/13 00:33:27;;;;;;;;;;;2.30;67.40;;;;;;5138734;28;20333;-27
2022/03/13 00:35:59;;;;;;;;;;;2.30;66.70;;;;;;5142871;28;21338;-27
2022/03/13 00:38:31;;;;;;;;;;;2.30;65.60;;;;;;5149935;28;19922;-26
2022/03/13 00:41:03;;;;;;;;;;;2.30;65.70;;;;;;5160674;28;19937;-28
2022/03/13 00:43:36;;;;;;;;;;;2.20;65.70;;;;;;5151233;28;19929;-28
2022/03/13 00:46:09;;;;;;;;;;;2.20;65.80;;;;;;5150129;28;19926;-27
2022/03/13 00:48:41;;;;;;;;;;;2.10;66.10;;;;;;5154342;28;19921;-27
2022/03/13 00:51:14;;;;;;;;;;;2.10;67.10;;;;;;5150578;28;19941;-27
2022/03/13 00:53:46;;;;;;;;;;;2.20;68.10;;;;;;5149158;28;19926;-26
2022/03/13 00:56:19;;;;;;;;;;;2.10;66.80;;;;;;5147863;28;19926;-28
2022/03/13 00:58:51;;;;;;;;;;;2.10;67.20;;;;;;5150554;28;19929;-27
2022/03/13 01:01:23;;;;;;;;;;;2.10;67.50;;;;;;5143839;28;19930;-27
2022/03/13 01:03:56;;;;;;;;;;;2.10;67.30;;;;;;5144292;28;20451;-28
2022/03/13 01:06:28;;;;;;;;;;;2.00;67.20;;;;;;5143388;28;19952;-27
2022/03/13 01:09:00;;;;;;;;;;;2.10;68.30;;;;;;5147123;28;20386;-27
2022/03/13 01:11:34;;;;;;;;;;;2.00;66.90;;;;;;5150818;28;20572;-27
2022/03/13 01:14:06;;;;;;;;;;;2.00;68.00;;;;;;5160680;28;19930;-27
2022/03/13 01:16:39;;;;;;;;;;;2.00;68.10;;;;;;5147275;28;19922;-27
2022/03/13 01:19:12;;;;;;;;;;;2.00;66.90;;;;;;5146528;28;19933;-27
2022/03/13 01:21:44;;;;;;;;;;;2.00;68.20;;;;;;5166676;28;19922;-26
2022/03/13 01:24:17;;;;;;;;;;;2.00;68.40;;;;;;5148360;28;19936;-27
2022/03/13 01:26:54;;;;;;;;;;;1.80;68.40;;;;;;5148986;28;19926;-27
2022/03/13 01:29:26;;;;;;;;;;;1.90;68.40;;;;;;5150413;28;20479;-27
2022/03/13 01:31:59;;;;;;;;;;;2.40;67.90;;;;;;5147149;28;19936;-27
2022/03/13 01:34:44;;;;;;;;;;;1.80;67.70;;;;;;5149010;28;19922;-28
2022/03/13 01:37:26;;;;;;;;;;;1.80;68.10;;;;;;5149892;28;19945;-26
2022/03/13 01:40:00;;;;;;;;;;;1.80;67.90;;;;;;5148097;28;19925;-28
2022/03/13 01:42:32;;;;;;;;;;;1.70;67.20;;;;;;5143604;28;19937;-27
2022/03/13 01:45:06;;;;;;;;;;;1.70;68.10;;;;;;5161658;28;20451;-28
2022/03/13 01:47:38;;;;;;;;;;;1.70;68.90;;;;;;5160478;28;19929;-27
2022/03/13 01:50:11;;;;;;;;;;;1.70;69.30;;;;;;5150823;28;19925;-28
2022/03/13 01:52:47;;;;;;;;;;;1.60;68.90;;;;;;5147917;28;19921;-28
2022/03/13 01:55:19;;;;;;;;;;;1.60;69.10;;;;;;5149195;28;19925;-26
2022/03/13 01:57:51;;;;;;;;;;;1.50;68.70;;;;;;5147204;28;19933;-27
2022/03/13 02:00:23;;;;;;;;;;;1.60;69.00;;;;;;5146517;28;20382;-27
2022/03/13 02:02:56;;;;;;;;;;;1.50;68.20;;;;;;5150371;28;19925;-27
2022/03/13 02:05:30;;;;;;;;;;;1.60;68.80;;;;;;5151352;28;20480;-27
2022/03/13 02:08:05;;;;;;;;;;;1.50;69.10;;;;;;5147079;28;20316;-27
2022/03/13 02:10:37;;;;;;;;;;;1.50;68.10;;;;;;5142601;28;19933;-27
2022/03/13 02:13:11;;;;;;;;;;;1.50;69.00;;;;;;5145479;28;20317;-27
2022/03/13 02:15:44;;;;;;;;;;;1.50;68.60;;;;;;5162678;28;20293;-25
2022/03/13 02:18:16;;;;;;;;;;;1.50;69.00;;;;;;5148761;28;19948;-25
2022/03/13 02:20:48;;;;;;;;;;;1.50;69.60;;;;;;5148918;28;19921;-25
2022/03/13 02:23:22;;;;;;;;;;;1.40;68.20;;;;;;5143038;28;20388;-26
2022/03/13 02:25:58;;;;;;;;;;;1.40;68.70;;;;;;5147302;28;20325;-27
2022/03/13 02:28:32;;;;;;;;;;;1.40;68.90;;;;;;5147060;28;19925;-27
2022/03/13 02:31:16;;;;;;;;;;;1.40;69.00;;;;;;5148538;28;19932;-27
2022/03/13 02:33:51;;;;;;;;;;;1.40;69.30;;;;;;5148692;28;20441;-26
2022/03/13 02:36:32;;;;;;;;;;;1.40;70.10;;;;;;5149995;28;19926;-26
2022/03/13 02:39:05;;;;;;;;;;;1.40;70.10;;;;;;5161212;28;19968;-26
2022/03/13 02:41:40;;;;;;;;;;;1.30;68.60;;;;;;5152672;28;19929;-25
2022/03/13 02:44:14;;;;;;;;;;;1.30;69.50;;;;;;5146787;28;19926;-25
2022/03/13 02:46:46;;;;;;;;;;;1.30;69.90;;;;;;5144795;28;19930;-28
2022/03/13 02:49:20;;;;;;;;;;;1.20;69.30;;;;;;5145518;28;19932;-27
2022/03/13 02:51:55;;;;;;;;;;;1.30;70.20;;;;;;5139745;28;19932;-27
2022/03/13 02:54:27;;;;;;;;;;;1.20;69.70;;;;;;5149837;28;20284;-27
2022/03/13 02:57:00;;;;;;;;;;;1.70;69.00;;;;;;5147130;28;19937;-28
2022/03/13 02:59:32;;;;;;;;;;;1.20;69.10;;;;;;5142378;28;19929;-27
2022/03/13 03:02:05;;;;;;;;;;;1.20;70.50;;;;;;5144018;28;20034;-27
2022/03/13 03:04:37;;;;;;;;;;;1.20;69.60;;;;;;5142841;28;19952;-26
2022/03/13 03:07:09;;;;;;;;;;;1.10;69.80;;;;;;5145076;28;20233;-27
2022/03/13 03:09:42;;;;;;;;;;;1.10;69.40;;;;;;5143873;28;20349;-28
2022/03/13 03:12:14;;;;;;;;;;;1.10;70.00;;;;;;5138184;28;19936;-26
2022/03/13 03:14:46;;;;;;;;;;;1.10;70.50;;;;;;5148625;28;19922;-27
2022/03/13 03:17:18;;;;;;;;;;;1.10;70.10;;;;;;5143625;28;19929;-26
2022/03/13 03:19:51;;;;;;;;;;;1.10;70.20;;;;;;5142652;28;19926;-26
2022/03/13 03:22:23;;;;;;;;;;;1.10;70.40;;;;;;5143575;28;19933;-27
2022/03/13 03:24:57;;;;;;;;;;;1.10;70.90;;;;;;5157453;28;19930;-26
2022/03/13 03:27:31;;;;;;;;;;;1.10;70.10;;;;;;5149309;28;19932;-27
2022/03/13 03:30:03;;;;;;;;;;;1.10;69.60;;;;;;5140322;28;19926;-28
2022/03/13 03:32:36;;;;;;;;;;;1.00;69.90;;;;;;5140804;28;20614;-26
2022/03/13 03:35:08;;;;;;;;;;;1.10;68.90;;;;;;5146573;28;19925;-27
2022/03/13 03:37:41;;;;;;;;;;;1.00;69.70;;;;;;5160120;28;19921;-27
2022/03/13 03:40:21;;;;;;;;;;;1.00;68.70;;;;;;5147861;28;19933;-27
2022/03/13 03:42:56;;;;;;;;;;;1.00;69.20;;;;;;5145891;28;19929;-26
2022/03/13 03:45:29;;;;;;;;;;;1.00;70.20;;;;;;5140798;28;19958;-27
2022/03/13 03:48:01;;;;;;;;;;;1.00;70.80;;;;;;5141890;28;19925;-26
2022/03/13 03:50:33;;;;;;;;;;;0.90;69.80;;;;;;5144944;28;20199;-27
2022/03/13 03:53:05;;;;;;;;;;;0.90;70.60;;;;;;5132852;28;20487;-27
2022/03/13 03:55:38;;;;;;;;;;;0.90;69.80;;;;;;5143811;28;19930;-27
2022/03/13 03:58:10;;;;;;;;;;;0.80;70.40;;;;;;5143724;28;19934;-27
2022/03/13 04:00:42;;;;;;;;;;;0.90;71.00;;;;;;5142614;28;19952;-27
2022/03/13 04:03:15;;;;;;;;;;;0.80;70.50;;;;;;5144505;28;19931;-26
2022/03/13 04:05:47;;;;;;;;;;;0.80;70.10;;;;;;5145605;28;19926;-26
2022/03/13 04:08:20;;;;;;;;;;;0.70;70.40;;;;;;5140138;28;19925;-27
2022/03/13 04:10:52;;;;;;;;;;;0.70;70.40;;;;;;5131493;28;19925;-27
2022/03/13 04:13:24;;;;;;;;;;;0.60;71.30;;;;;;5147322;28;20536;-27
2022/03/13 04:15:56;;;;;;;;;;;0.70;71.30;;;;;;5144977;28;20013;-26
2022/03/13 04:18:29;;;;;;;;;;;0.70;70.60;;;;;;5145224;28;19926;-38
2022/03/13 04:21:03;;;;;;;;;;;0.70;71.00;;;;;;5142787;28;20338;-27
2022/03/13 04:23:36;;;;;;;;;;;0.70;71.50;;;;;;5141912;28;19930;-27
2022/03/13 04:26:08;;;;;;;;;;;0.70;71.10;;;;;;5145992;28;19922;-28
2022/03/13 04:28:41;;;;;;;;;;;0.70;71.50;;;;;;5147770;28;20006;-27
2022/03/13 04:31:13;;;;;;;;;;;0.60;70.40;;;;;;5168737;23;19932;-31
2022/03/13 04:33:47;;;;;;;;;;;0.70;71.60;;;;;;5150963;28;19929;-31
2022/03/13 04:36:21;;;;;;;;;;;0.60;71.40;;;;;;5156803;28;20305;-31
2022/03/13 04:38:53;;;;;;;;;;;0.60;70.80;;;;;;5154340;28;19928;-31
2022/03/13 04:41:25;;;;;;;;;;;0.40;70.60;;;;;;5156792;28;20305;-31
2022/03/13 04:43:58;;;;;;;;;;;0.70;71.40;;;;;;5159226;28;20328;-30
2022/03/13 04:46:30;;;;;;;;;;;0.60;71.20;;;;;;5160030;28;19921;-31
2022/03/13 04:49:03;;;;;;;;;;;0.60;71.60;;;;;;5142088;28;19932;-31
2022/03/13 04:51:39;;;;;;;;;;;0.60;72.00;;;;;;5159445;28;19991;-31
2022/03/13 04:54:11;;;;;;;;;;;0.50;71.40;;;;;;5157842;28;19929;-31
2022/03/13 04:56:44;;;;;;;;;;;0.50;72.20;;;;;;5158352;28;20176;-31
2022/03/13 04:59:17;;;;;;;;;;;0.60;71.40;;;;;;5159285;28;20533;-30
2022/03/13 05:01:51;;;;;;;;;;;0.50;71.70;;;;;;5155183;28;19921;-31
2022/03/13 05:04:24;;;;;;;;;;;0.40;71.50;;;;;;5158242;28;19929;-35
2022/03/13 05:06:56;;;;;;;;;;;0.40;71.40;;;;;;5164505;28;19932;-30
2022/03/13 05:09:29;;;;;;;;;;;0.30;71.20;;;;;;5160864;28;19952;-30
2022/03/13 05:12:04;;;;;;;;;;;0.60;71.90;;;;;;5163487;28;20598;-31
2022/03/13 05:14:37;;;;;;;;;;;0.30;71.60;;;;;;5164412;28;19941;-29
2022/03/13 05:17:09;;;;;;;;;;;0.30;72.60;;;;;;5143790;28;19929;-31
2022/03/13 05:19:42;;;;;;;;;;;0.30;72.20;;;;;;5161684;28;19925;-31
2022/03/13 05:22:14;;;;;;;;;;;0.30;72.20;;;;;;5158509;28;20234;-31
2022/03/13 05:24:46;;;;;;;;;;;0.30;71.40;;;;;;5147096;28;19927;-31
2022/03/13 05:27:19;;;;;;;;;;;0.30;72.20;;;;;;5162959;28;19925;-31
2022/03/13 05:29:51;;;;;;;;;;;0.30;70.80;;;;;;5163595;28;19925;-30
2022/03/13 05:32:24;;;;;;;;;;;0.30;71.10;;;;;;5157597;28;19929;-29
2022/03/13 05:34:57;;;;;;;;;;;0.30;72.00;;;;;;5163102;28;19944;-31
2022/03/13 05:37:29;;;;;;;;;;;0.30;72.60;;;;;;5161146;28;19921;-30
2022/03/13 05:40:02;;;;;;;;;;;0.30;72.30;;;;;;5157620;28;20238;-29
2022/03/13 05:42:34;;;;;;;;;;;0.40;73.00;;;;;;5161060;28;19932;-31
2022/03/13 05:45:07;;;;;;;;;;;0.20;71.80;;;;;;5140828;28;20238;-31
2022/03/13 05:47:46;;;;;;;;;;;0.80;73.00;;;;;;5162838;28;20285;-32
2022/03/13 05:50:19;;;;;;;;;;;0.20;72.70;;;;;;5157622;28;19932;-29
2022/03/13 05:52:55;;;;;;;;;;;0.40;73.00;;;;;;5160891;28;19948;-32
2022/03/13 05:55:28;;;;;;;;;;;0.20;72.80;;;;;;5161511;28;20085;-31
2022/03/13 05:58:00;;;;;;;;;;;0.20;73.60;;;;;;5161475;28;19925;-30
2022/03/13 06:00:33;;;;;;;;;;;0.30;73.80;;;;;;5155136;28;19933;-30
2022/03/13 06:03:06;;;;;;;;;;;0.30;73.50;;;;;;5149618;28;19929;-32
2022/03/13 06:05:38;;;;;;;;;;;0.30;73.20;;;;;;5158183;28;20191;-31
2022/03/13 06:08:10;;;;;;;;;;;0.30;74.20;;;;;;5158666;28;19929;-31
2022/03/13 06:10:43;;;;;;;;;;;0.30;73.40;;;;;;5151189;28;20193;-31
2022/03/13 06:13:15;;;;;;;;;;;0.30;73.80;;;;;;5137005;28;20024;-31
2022/03/13 06:15:49;;;;;;;;;;;0.50;74.00;;;;;;5135206;28;20417;-31
2022/03/13 06:18:21;;;;;;;;;;;0.50;73.40;;;;;;5153916;28;19933;-30
2022/03/13 06:20:54;;;;;;;;;;;0.40;73.40;;;;;;5138337;28;19926;-31
2022/03/13 06:23:29;;;;;;;;;;;0.40;73.10;;;;;;5156007;28;19921;-30
2022/03/13 06:26:03;;;;;;;;;;;0.40;73.00;;;;;;5154142;28;20493;-29
2022/03/13 06:28:36;;;;;;;;;;;0.90;73.50;;;;;;5158375;28;19925;-31
2022/03/13 06:31:09;;;;;;;;;;;0.50;72.30;;;;;;5160415;28;19921;-30
2022/03/13 06:33:41;;;;;;;;;;;0.50;73.40;;;;;;5157686;28;19926;-31
2022/03/13 06:36:13;;;;;;;;;;;0.60;72.80;;;;;;5136057;28;20404;-30
2022/03/13 06:38:46;;;;;;;;;;;1.00;73.30;;;;;;5148309;28;19928;-30
2022/03/13 06:41:19;;;;;;;;;;;0.50;73.70;;;;;;5157845;28;19926;-31
2022/03/13 06:43:53;;;;;;;;;;;0.50;73.40;;;;;;5147655;28;19928;-30
2022/03/13 06:46:25;;;;;;;;;;;0.60;73.40;;;;;;5151198;28;20286;-30
2022/03/13 06:48:59;;;;;;;;;;;0.60;73.50;;;;;;5157600;28;20370;-30
2022/03/13 06:51:31;;;;;;;;;;;0.70;73.20;;;;;;5139103;28;19926;-30
2022/03/13 06:54:04;;;;;;;;;;;0.70;73.40;;;;;;5132413;28;19929;-30
2022/03/13 06:56:38;;;;;;;;;;;0.80;73.50;;;;;;5156670;28;19932;-30
2022/03/13 06:59:10;;;;;;;;;;;0.90;73.80;;;;;;5150913;28;19932;-30
2022/03/13 07:01:43;;;;;;;;;;;0.90;72.20;;;;;;5159204;28;19921;-30
2022/03/13 07:04:15;;;;;;;;;;;0.90;73.60;;;;;;5152530;28;19930;-29
2022/03/13 07:06:47;;;;;;;;;;;1.10;74.10;;;;;;5150928;28;19925;-30
2022/03/13 07:09:20;;;;;;;;;;;1.10;73.70;;;;;;5161618;28;19937;-29
2022/03/13 07:11:52;;;;;;;;;;;1.20;74.20;;;;;;5161967;28;19922;-29
2022/03/13 07:14:24;;;;;;;;;;;1.30;73.00;;;;;;5153886;28;20425;-30
2022/03/13 07:16:58;;;;;;;;;;;1.50;72.80;;;;;;5136567;28;19922;-31
2022/03/13 07:19:30;;;;;;;;;;;1.50;72.40;;;;;;5158625;28;19932;-30
2022/03/13 07:22:03;;;;;;;;;;;1.60;71.80;;;;;;5151077;28;19925;-30
2022/03/13 07:24:35;;;;;;;;;;;1.70;72.00;;;;;;5157505;28;19933;-29
2022/03/13 07:27:07;;;;;;;;;;;1.80;71.20;;;;;;5154745;28;19929;-30
2022/03/13 07:29:39;;;;;;;;;;;2.00;70.60;;;;;;5154032;28;19933;-29
2022/03/13 07:32:12;;;;;;;;;;;2.10;70.30;;;;;;5145811;28;20241;-28
2022/03/13 07:34:44;;;;;;;;;;;2.20;69.90;;;;;;5152953;28;19936;-32
2022/03/13 07:37:17;;;;;;;;;;;2.30;71.20;;;;;;5149252;28;19941;-30
2022/03/13 07:39:49;;;;;;;;;;;2.60;69.30;;;;;;5133428;28;19925;-29
2022/03/13 07:42:21;;;;;;;;;;;2.60;69.80;;;;;;5153147;28;20530;-29
2022/03/13 07:44:53;;;;;;;;;;;2.80;69.20;;;;;;5144489;28;20095;-28
2022/03/13 07:47:26;;;;;;;;;;;2.90;68.90;;;;;;5150745;28;19929;-30
2022/03/13 07:49:58;;;;;;;;;;;3.20;68.10;;;;;;5150665;28;19933;-31
2022/03/13 07:52:30;;;;;;;;;;;3.20;67.60;;;;;;5140462;28;20484;-30
2022/03/13 07:55:04;;;;;;;;;;;3.30;67.60;;;;;;5136116;28;20257;-31
2022/03/13 07:57:36;;;;;;;;;;;3.40;67.30;;;;;;5132251;28;19930;-30
2022/03/13 08:00:15;;;;;;;;;;;3.50;67.10;;;;;;5134781;28;20166;-30
2022/03/13 08:02:47;;;;;;;;;;;3.60;67.00;;;;;;5147352;28;20382;-30
2022/03/13 08:05:23;;;;;;;;;;;3.80;66.60;;;;;;5146679;28;19928;-29
2022/03/13 08:07:58;;;;;;;;;;;3.90;66.50;;;;;;5147793;28;20286;-30
2022/03/13 08:10:30;;;;;;;;;;;4.00;65.30;;;;;;5128792;28;19988;-30
2022/03/13 08:13:02;;;;;;;;;;;4.20;66.10;;;;;;5152475;28;20350;-30
2022/03/13 08:15:35;;;;;;;;;;;4.30;65.60;;;;;;5154597;28;19936;-31
2022/03/13 08:18:09;;;;;;;;;;;4.40;65.10;;;;;;5128721;28;20669;-29
2022/03/13 08:20:42;;;;;;;;;;;4.80;64.10;;;;;;5150769;28;19952;-30
2022/03/13 08:23:15;;;;;;;;;;;4.70;64.20;;;;;;5144991;28;19931;-31
2022/03/13 08:25:48;;;;;;;;;;;4.80;63.80;;;;;;5154847;28;19930;-32
2022/03/13 08:28:20;;;;;;;;;;;5.10;64.60;;;;;;5134831;28;19992;-29
2022/03/13 08:30:52;;;;;;;;;;;5.10;64.80;;;;;;5151832;28;19925;-30
2022/03/13 08:33:24;;;;;;;;;;;5.40;64.20;;;;;;5163004;28;20394;-30
2022/03/13 08:35:57;;;;;;;;;;;5.30;64.30;;;;;;5158067;28;19945;-31
2022/03/13 08:38:29;;;;;;;;;;;5.40;64.40;;;;;;5159885;28;20211;-30
2022/03/13 08:41:01;;;;;;;;;;;5.50;64.20;;;;;;4466122;28;10000625;-30
2022/03/13 08:43:34;;;;;;;;;;;5.60;64.00;;;;;;5135822;28;21109;-30
2022/03/13 08:46:06;;;;;;;;;;;5.70;63.40;;;;;;5140104;28;19938;-29
2022/03/13 08:48:39;;;;;;;;;;;5.90;63.50;;;;;;5157767;28;19925;-30
2022/03/13 08:51:13;;;;;;;;;;;5.90;63.10;;;;;;5134462;28;20401;-31
2022/03/13 08:53:45;;;;;;;;;;;6.20;62.90;;;;;;5144763;28;19936;-30
2022/03/13 08:56:18;;;;;;;;;;;6.20;62.40;;;;;;5142717;28;19927;-31
2022/03/13 08:58:50;;;;;;;;;;;6.40;62.40;;;;;;5156928;28;19937;-31
2022/03/13 09:01:24;;;;;;;;;;;6.80;60.70;;;;;;5156221;28;19933;-30
2022/03/13 09:03:58;;;;;;;;;;;6.60;60.80;;;;;;5155441;28;19948;-31
2022/03/13 09:06:30;;;;;;;;;;;6.70;60.40;;;;;;5141414;28;20025;-29
2022/03/13 09:09:02;;;;;;;;;;;6.90;60.40;;;;;;5149268;28;19925;-31
2022/03/13 09:11:35;;;;;;;;;;;7.00;59.90;;;;;;5152597;28;20492;-31
2022/03/13 09:14:08;;;;;;;;;;;7.10;59.40;;;;;;5149871;28;20814;-31
2022/03/13 09:16:41;;;;;;;;;;;7.30;59.00;;;;;;5135549;28;19921;-31
2022/03/13 09:19:14;;;;;;;;;;;7.40;59.00;;;;;;5138414;28;20621;-29
2022/03/13 09:21:46;;;;;;;;;;;7.50;57.50;;;;;;5142722;28;20040;-29
2022/03/13 09:24:19;;;;;;;;;;;7.60;57.90;;;;;;5149543;28;20538;-31
2022/03/13 09:26:51;;;;;;;;;;;7.70;57.50;;;;;;5120258;28;19921;-31
2022/03/13 09:29:23;;;;;;;;;;;7.80;57.50;;;;;;5154741;28;20009;-31
2022/03/13 09:32:00;;;;;;;;;;;7.90;57.60;;;;;;5150192;28;19932;-30
2022/03/13 09:34:34;;;;;;;;;;;8.10;56.30;;;;;;5142804;28;19929;-30
2022/03/13 09:37:06;;;;;;;;;;;8.20;54.70;;;;;;5146262;28;19929;-30
2022/03/13 09:39:38;;;;;;;;;;;8.30;55.00;;;;;;5144172;28;19932;-31
2022/03/13 09:42:10;;;;;;;;;;;8.40;53.70;;;;;;5152504;28;19933;-30
2022/03/13 09:44:43;;;;;;;;;;;8.90;54.40;;;;;;5144058;28;19925;-30
2022/03/13 09:47:15;;;;;;;;;;;8.50;53.70;;;;;;5141944;28;19932;-31
2022/03/13 09:49:50;;;;;;;;;;;8.60;53.10;;;;;;5128845;28;19925;-30
2022/03/13 09:52:23;;;;;;;;;;;8.70;52.30;;;;;;5134816;28;19925;-29
2022/03/13 09:54:55;;;;;;;;;;;8.80;52.40;;;;;;5145211;28;19933;-30
2022/03/13 09:57:28;;;;;;;;;;;8.90;52.40;;;;;;5140654;28;20034;-31
2022/03/13 10:00:02;;;;;;;;;;;9.00;52.30;;;;;;5136084;28;20051;-31
2022/03/13 10:02:43;;;;;;;;;;;9.10;52.30;;;;;;5141071;28;19952;-31
2022/03/13 10:05:18;;;;;;;;;;;9.20;52.00;;;;;;5141251;28;19952;-28
2022/03/13 10:07:54;;;;;;;;;;;9.30;53.10;;;;;;5150125;28;19925;-29
2022/03/13 10:10:28;;;;;;;;;;;9.40;51.40;;;;;;5136186;28;19960;-30
2022/03/13 10:13:01;;;;;;;;;;;9.40;51.00;;;;;;5145045;28;19936;-29
2022/03/13 10:15:46;;;;;;;;;;;9.50;51.00;;;;;;5139871;28;19952;-31
2022/03/13 10:18:19;;;;;;;;;;;9.60;51.10;;;;;;5140572;28;19929;-29
2022/03/13 10:20:52;;;;;;;;;;;9.70;51.50;;;;;;5135997;28;20286;-30
2022/03/13 10:23:25;;;;;;;;;;;9.80;50.80;;;;;;5135186;28;19929;-30
2022/03/13 10:25:57;;;;;;;;;;;10.10;50.70;;;;;;5139876;28;20149;-30
2022/03/13 10:28:31;;;;;;;;;;;10.20;50.50;;;;;;5142123;28;20091;-30
2022/03/13 10:31:03;;;;;;;;;;;10.10;50.70;;;;;;5143260;28;19926;-30
2022/03/13 10:34:00;;;;;;;;;;;10.30;50.60;;;;;;5186013;23;19925;-80
2022/03/13 10:36:34;;;;;;;;;;;10.40;50.90;;;;;;5197090;28;19939;-79
2022/03/13 10:39:12;;;;;;;;;;;10.50;49.50;;;;;;5190122;28;19917;-78
2022/03/13 10:41:44;;;;;;;;;;;10.60;49.50;;;;;;5218792;28;19909;-77
2022/03/13 10:44:19;;;;;;;;;;;10.60;49.60;;;;;;5188983;28;19924;-81
2022/03/13 10:46:55;;;;;;;;;;;10.70;49.00;;;;;;5193919;28;20506;-80
2022/03/13 10:49:31;;;;;;;;;;;10.80;49.20;;;;;;5197717;28;19925;-78
2022/03/13 10:52:25;;;;;;;;;;;10.90;49.30;;;;;;5181570;28;19924;-79
2022/03/13 10:55:14;;;;;;;;;;;11.10;48.70;;;;;;5174027;28;20716;-78
2022/03/13 10:57:47;;;;;;;;;;;11.00;49.70;;;;;;5190622;28;19929;-78
2022/03/13 11:00:20;;;;;;;;;;;11.20;49.70;;;;;;5192673;28;19928;-79
2022/03/13 11:02:55;;;;;;;;;;;11.30;48.60;;;;;;5180792;28;20209;-80
2022/03/13 11:05:30;;;;;;;;;;;11.30;48.80;;;;;;5181685;28;19920;-80
2022/03/13 11:08:04;;;;;;;;;;;11.40;48.60;;;;;;5207621;28;19929;-80
2022/03/13 11:10:36;;;;;;;;;;;11.50;48.30;;;;;;5200504;28;19932;-79
2022/03/13 11:13:27;;;;;;;;;;;11.60;48.60;;;;;;5117937;28;9999854;-81
2022/03/13 11:16:03;;;;;;;;;;;11.70;47.80;;;;;;5191171;28;19932;-81
2022/03/13 11:18:37;;;;;;;;;;;11.80;48.40;;;;;;5182155;28;19924;-80
2022/03/13 11:21:10;;;;;;;;;;;11.70;48.10;;;;;;5181214;28;19929;-80
2022/03/13 11:23:42;;;;;;;;;;;11.80;49.00;;;;;;5190044;28;19925;-82
2022/03/13 11:26:15;;;;;;;;;;;11.90;48.20;;;;;;5182040;28;19932;-79
2022/03/13 11:28:48;;;;;;;;;;;11.90;48.50;;;;;;5177863;28;19932;-80
2022/03/13 11:31:29;;;;;;;;;;;12.00;47.90;;;;;;5163351;28;20956;-80
2022/03/13 11:34:11;;;;;;;;;;;12.00;48.10;;;;;;5161449;28;19928;-79
2022/03/13 11:36:47;;;;;;;;;;;12.20;48.20;;;;;;5180620;28;20253;-79
2022/03/13 11:39:24;;;;;;;;;;;12.10;48.00;;;;;;5173574;28;19925;-82
2022/03/13 11:41:57;;;;;;;;;;;12.30;47.80;;;;;;5190373;28;19929;-79
2022/03/13 11:44:30;;;;;;;;;;;12.20;48.00;;;;;;5189659;28;19936;-82
2022/03/13 11:47:18;;;;;;;;;;;12.30;47.80;;;;;;5193593;28;19928;-79
2022/03/13 11:49:50;;;;;;;;;;;12.40;48.20;;;;;;5201155;28;19928;-80
2022/03/13 11:52:26;;;;;;;;;;;12.40;48.20;;;;;;5175842;28;19929;-80
2022/03/13 11:55:00;;;;;;;;;;;12.40;47.10;;;;;;5193253;28;19928;-77
2022/03/13 11:57:41;;;;;;;;;;;12.50;47.60;;;;;;5191689;28;20004;-81
2022/03/13 12:00:14;;;;;;;;;;;12.40;46.70;;;;;;5192860;28;19929;-82
2022/03/13 12:02:49;;;;;;;;;;;12.40;46.30;;;;;;5191635;28;19944;-79
2022/03/13 12:05:25;;;;;;;;;;;12.40;46.50;;;;;;5180770;28;19924;-79
2022/03/13 12:08:05;;;;;;;;;;;12.40;46.60;;;;;;5200613;28;19927;-79
2022/03/13 12:10:42;;;;;;;;;;;12.40;47.00;;;;;;5173694;28;19936;-82
2022/03/13 12:13:18;;;;;;;;;;;12.40;47.30;;;;;;5181094;28;19925;-79
2022/03/13 12:15:51;;;;;;;;;;;12.50;47.30;;;;;;5194678;28;21977;-82
2022/03/13 12:18:31;;;;;;;;;;;12.50;47.00;;;;;;5184372;28;20027;-78
2022/03/13 12:21:11;;;;;;;;;;;12.50;46.90;;;;;;5169463;28;19936;-80
2022/03/13 12:23:43;;;;;;;;;;;12.50;47.40;;;;;;5185225;28;19932;-82
2022/03/13 12:26:41;;;;;;;;;;;12.50;46.30;;;;;;5194040;28;20641;-79
2022/03/13 12:29:15;;;;;;;;;;;12.60;46.40;;;;;;5177114;28;19947;-80
2022/03/13 12:31:48;;;;;;;;;;;12.60;46.70;;;;;;5190324;28;19929;-80
2022/03/13 12:34:24;;;;;;;;;;;12.70;45.80;;;;;;5180556;28;20479;-83
2022/03/13 12:37:00;;;;;;;;;;;12.70;45.60;;;;;;5173497;28;19932;-79
2022/03/13 12:39:33;;;;;;;;;;;12.70;45.60;;;;;;5146239;28;20403;-79
2022/03/13 12:42:05;;;;;;;;;;;12.80;45.40;;;;;;5174152;28;19932;-83
2022/03/13 12:44:37;;;;;;;;;;;12.80;45.40;;;;;;5176379;28;19925;-82
2022/03/13 12:47:09;;;;;;;;;;;12.90;45.50;;;;;;5187746;28;19929;-83
2022/03/13 12:49:42;;;;;;;;;;;12.90;44.80;;;;;;5206554;28;19929;-82
2022/03/13 12:52:15;;;;;;;;;;;12.90;45.00;;;;;;5199920;28;19929;-80
2022/03/13 12:54:47;;;;;;;;;;;13.00;44.10;;;;;;5167274;28;19924;-79
2022/03/13 12:57:19;;;;;;;;;;;13.00;44.10;;;;;;5170309;28;19948;-79
2022/03/13 12:59:52;;;;;;;;;;;13.00;44.30;;;;;;5200848;28;19936;-81
2022/03/13 13:02:26;;;;;;;;;;;13.10;44.60;;;;;;5199529;28;19931;-82
2022/03/13 13:05:04;;;;;;;;;;;13.10;43.60;;;;;;5183645;28;20372;-80
2022/03/13 13:07:39;;;;;;;;;;;13.20;44.20;;;;;;5154315;28;19925;-80
2022/03/13 13:10:11;;;;;;;;;;;13.20;43.60;;;;;;5192847;28;19931;-79
2022/03/13 13:12:44;;;;;;;;;;;13.30;44.70;;;;;;5180930;28;19928;-79
2022/03/13 13:15:18;;;;;;;;;;;13.30;44.20;;;;;;5185001;28;19935;-80
2022/03/13 13:17:52;;;;;;;;;;;13.40;43.90;;;;;;5173854;28;20444;-81
2022/03/13 13:20:25;;;;;;;;;;;13.40;43.60;;;;;;5184678;28;19921;-79
2022/03/13 13:23:08;;;;;;;;;;;13.50;43.70;;;;;;5186004;28;19940;-82
2022/03/13 13:25:40;;;;;;;;;;;13.50;42.70;;;;;;5196996;28;19925;-81
2022/03/13 13:28:13;;;;;;;;;;;13.60;43.40;;;;;;5172936;28;19929;-82
2022/03/13 13:30:53;;;;;;;;;;;13.60;43.10;;;;;;5169829;28;20483;-79
2022/03/13 13:33:29;;;;;;;;;;;13.60;42.60;;;;;;5163897;28;19929;-79
2022/03/13 13:36:02;;;;;;;;;;;13.70;42.60;;;;;;5187368;28;20825;-81
2022/03/13 13:38:35;;;;;;;;;;;13.70;42.50;;;;;;5183453;28;19944;-80
2022/03/13 13:41:09;;;;;;;;;;;13.80;43.20;;;;;;5171466;28;19932;-79
2022/03/13 13:43:43;;;;;;;;;;;13.80;42.90;;;;;;5188528;28;19925;-82
2022/03/13 13:46:17;;;;;;;;;;;13.90;43.50;;;;;;5191988;28;19929;-80
2022/03/13 13:48:51;;;;;;;;;;;13.90;43.40;;;;;;5189737;28;19944;-80
2022/03/13 13:51:30;;;;;;;;;;;14.00;43.50;;;;;;5177288;28;19925;-79
2022/03/13 13:54:10;;;;;;;;;;;14.10;43.80;;;;;;5194447;28;19928;-82
2022/03/13 13:56:49;;;;;;;;;;;14.10;43.70;;;;;;5196246;28;19925;-80
2022/03/13 13:59:26;;;;;;;;;;;14.10;43.70;;;;;;5175855;28;19924;-82
2022/03/13 14:02:05;;;;;;;;;;;14.10;44.40;;;;;;5193811;28;19935;-80
2022/03/13 14:04:42;;;;;;;;;;;14.20;44.30;;;;;;5181292;28;19935;-82
2022/03/13 14:07:14;;;;;;;;;;;14.30;44.60;;;;;;5176686;28;20316;-80
2022/03/13 14:09:47;;;;;;;;;;;14.40;44.50;;;;;;5173660;28;19935;-82
2022/03/13 14:12:19;;;;;;;;;;;14.30;45.00;;;;;;5172561;28;19932;-82
2022/03/13 14:14:51;;;;;;;;;;;14.30;44.80;;;;;;5190069;28;21202;-81
2022/03/13 14:17:26;;;;;;;;;;;14.40;45.00;;;;;;5195826;28;19925;-80
2022/03/13 14:20:02;;;;;;;;;;;14.50;45.10;;;;;;5191166;28;19936;-82
2022/03/13 14:22:34;;;;;;;;;;;14.50;44.20;;;;;;5192138;28;19924;-79
2022/03/13 14:25:07;;;;;;;;;;;14.60;43.70;;;;;;5190032;28;19928;-80
2022/03/13 14:27:40;;;;;;;;;;;14.60;44.00;;;;;;5192407;28;20913;-81
2022/03/13 14:30:12;;;;;;;;;;;14.50;43.70;;;;;;5192366;28;20668;-80
2022/03/13 14:32:44;;;;;;;;;;;14.50;43.70;;;;;;5192026;28;19929;-81
2022/03/13 14:35:18;;;;;;;;;;;14.50;43.70;;;;;;5158509;28;21172;-82
2022/03/13 14:37:50;;;;;;;;;;;14.50;42.10;;;;;;5189199;28;19925;-81
2022/03/13 14:40:42;;;;;;;;;;;14.50;42.40;;;;;;5187396;28;19925;-84
2022/03/13 14:43:15;;;;;;;;;;;14.50;42.00;;;;;;5179954;28;19928;-81
2022/03/13 14:45:48;;;;;;;;;;;14.60;42.10;;;;;;5175780;28;19929;-80
2022/03/13 14:48:22;;;;;;;;;;;14.60;41.60;;;;;;5169801;28;20407;-82
2022/03/13 14:50:54;;;;;;;;;;;14.60;42.30;;;;;;5183036;28;19925;-81
2022/03/13 14:53:27;;;;;;;;;;;14.60;40.80;;;;;;5186073;28;19935;-83
2022/03/13 14:56:01;;;;;;;;;;;14.60;40.10;;;;;;5175908;28;20661;-82
2022/03/13 14:58:36;;;;;;;;;;;14.60;40.80;;;;;;5178778;28;20403;-79
2022/03/13 15:01:09;;;;;;;;;;;14.50;40.00;;;;;;5189785;28;19928;-82
2022/03/13 15:03:42;;;;;;;;;;;14.60;41.30;;;;;;5183874;28;19947;-80